Terminal Aerodrome Forecast
Issued by NWS Duluth, MN

Home | Current Version | Previous Version | Text Only | Print | Product List | Glossary On
Versions: 1 2 3 4 5 6 7 8 9 10 11 12 13 14 15 16 17 18
040
FTUS43 KDLH 121522 CCA
TAFINL
TAF COR
KINL 121522Z 1215/1312 31011G17KT P6SM SCT020
      TEMPO 1215/1219 4SM -SHSN BLSN BKN018
     FM130000 30008KT P6SM SKC
     FM131000 VRB03KT P6SM SKC=

USA.gov is the U.S. government's official web portal to all federal, state and local government web resources and services.